Time;durP1;ratioP1;P1;durP2;ratioP2;P2;SDS_P1;SDS_P2;PMS_P1;PMS_P2;Temp;Humidity;BMP_temperature;BMP_pressure;BME280_temperature;BME280_humidity;BME280_pressure;Samples;Min_cycle;Max_cycle;Signal;HPM_P1;HPM_P2
2023/04/11 00:00:17;;;;;;;0.80;0.80;;;;;;;11.36;82.11;100049.00;4996473;28;20223;-78
2023/04/11 00:02:45;;;;;;;1.70;0.90;;;;;;;11.24;82.28;100028.63;5000440;28;20206;-79
2023/04/11 00:05:12;;;;;;;0.80;0.70;;;;;;;11.23;81.74;100033.03;4988772;28;20322;-79
2023/04/11 00:07:38;;;;;;;0.70;0.70;;;;;;;11.20;81.74;100033.00;4982591;28;20272;-78
2023/04/11 00:10:06;;;;;;;1.20;0.73;;;;;;;11.16;82.79;100028.56;4979952;28;20275;-79
2023/04/11 00:12:32;;;;;;;1.10;1.00;;;;;;;11.07;82.60;100011.72;4993986;28;20532;-79
2023/04/11 00:14:59;;;;;;;1.10;0.80;;;;;;;11.04;82.29;100009.94;4978127;28;20256;-78
2023/04/11 00:17:30;;;;;;;1.57;0.80;;;;;;;11.05;81.79;100002.88;4982375;28;20203;-80
2023/04/11 00:20:00;;;;;;;1.27;1.00;;;;;;;10.96;83.18;99999.31;4998194;28;20239;-80
2023/04/11 00:22:26;;;;;;;0.60;0.57;;;;;;;10.93;84.36;99994.00;4997103;28;20237;-82
2023/04/11 00:24:53;;;;;;;0.80;0.73;;;;;;;10.90;83.22;99987.81;4990933;28;20197;-82
2023/04/11 00:27:20;;;;;;;1.03;0.77;;;;;;;10.80;83.40;100007.16;4993204;28;20220;-82
2023/04/11 00:29:47;;;;;;;3.03;0.90;;;;;;;10.57;85.71;100010.53;4993936;28;20219;-80
2023/04/11 00:32:13;;;;;;;0.93;0.80;;;;;;;10.43;86.61;100011.31;4989910;28;20260;-81
2023/04/11 00:34:41;;;;;;;1.10;0.70;;;;;;;10.30;88.50;100016.50;5000613;28;20257;-78
2023/04/11 00:37:07;;;;;;;3.40;0.83;;;;;;;10.24;89.00;100010.28;4974549;28;20569;-75
2023/04/11 00:39:34;;;;;;;1.70;1.00;;;;;;;10.23;89.10;100004.09;5001353;28;20221;-80
2023/04/11 00:42:05;;;;;;;1.17;0.67;;;;;;;10.22;89.10;100015.56;4988808;28;20765;-78
2023/04/11 00:44:32;;;;;;;1.53;0.90;;;;;;;10.13;89.95;100003.97;4997140;28;20200;-78
2023/04/11 00:47:01;;;;;;;1.67;0.67;;;;;;;10.09;90.00;100016.28;4977738;28;20234;-77
2023/04/11 00:49:29;;;;;;;1.17;0.70;;;;;;;10.07;90.83;100047.13;5001965;28;20232;-76
2023/04/11 00:51:55;;;;;;;1.20;0.70;;;;;;;10.00;91.92;100034.69;4998163;28;20200;-76
2023/04/11 00:54:28;;;;;;;0.70;0.70;;;;;;;10.03;91.69;100003.00;4990184;28;20201;-81
2023/04/11 00:57:00;;;;;;;0.60;0.60;;;;;;;10.18;90.47;100021.66;4982354;28;20691;-81
2023/04/11 00:59:28;;;;;;;1.33;0.87;;;;;;;10.11;91.31;100032.19;5000666;28;20222;-81
2023/04/11 01:01:55;;;;;;;0.80;0.80;;;;;;;9.99;92.53;100036.44;4982125;28;20198;-81
2023/04/11 01:04:21;;;;;;;0.90;0.80;;;;;;;10.01;94.83;100053.25;4995670;28;20695;-81
2023/04/11 01:06:53;;;;;;;0.70;0.70;;;;;;;9.95;95.80;100073.44;4997289;28;20196;-80
2023/04/11 01:09:21;;;;;;;1.60;1.23;;;;;;;9.91;97.21;100082.22;4998032;28;20208;-77
2023/04/11 01:11:49;;;;;;;1.27;0.73;;;;;;;9.93;97.73;100084.00;4985043;28;20270;-79
2023/04/11 01:14:17;;;;;;;2.03;1.00;;;;;;;9.86;98.96;100086.56;4993913;28;20281;-80
2023/04/11 01:16:49;;;;;;;2.13;0.77;;;;;;;9.82;98.17;100084.78;4995699;28;20204;-81
2023/04/11 01:19:21;;;;;;;0.80;0.80;;;;;;;9.74;98.62;100066.19;4994294;28;20198;-79
2023/04/11 01:21:51;;;;;;;1.27;0.90;;;;;;;9.63;99.10;100066.06;4991572;28;20222;-82
2023/04/11 01:24:17;;;;;;;1.13;0.90;;;;;;;9.68;97.29;100056.41;4996527;28;20199;-82
2023/04/11 01:26:44;;;;;;;1.20;1.07;;;;;;;9.61;98.40;100053.69;4998024;28;20204;-82
2023/04/11 01:29:11;;;;;;;1.63;1.00;;;;;;;9.57;97.37;100046.56;4995088;28;20287;-77
2023/04/11 01:31:37;;;;;;;2.87;1.17;;;;;;;9.57;98.39;100050.09;4984058;28;20197;-82
2023/04/11 01:34:04;;;;;;;1.97;0.80;;;;;;;9.50;98.37;100047.38;4978882;28;20205;-81
2023/04/11 01:36:31;;;;;;;2.80;1.00;;;;;;;9.41;99.53;100049.03;5001342;28;20197;-78
2023/04/11 01:38:57;;;;;;;2.33;1.20;;;;;;;9.33;99.91;100042.78;4962667;28;20202;-82
2023/04/11 01:41:25;;;;;;;1.23;1.00;;;;;;;9.34;100.00;100047.19;4986737;28;20229;-79
2023/04/11 01:43:52;;;;;;;0.83;0.80;;;;;;;9.16;100.00;100020.50;4993261;28;20196;-77
2023/04/11 01:46:18;;;;;;;1.10;0.90;;;;;;;9.37;100.00;100057.78;4978272;28;20260;-81
2023/04/11 01:48:45;;;;;;;1.30;1.20;;;;;;;9.26;100.00;100046.22;4996715;28;20594;-77
2023/04/11 01:51:11;;;;;;;1.30;0.90;;;;;;;9.22;100.00;100052.31;4995284;28;20221;-79
2023/04/11 01:53:38;;;;;;;1.57;0.87;;;;;;;9.24;100.00;100049.69;5000736;28;20201;-81
2023/04/11 01:56:05;;;;;;;2.50;1.10;;;;;;;9.29;100.00;100070.03;4997955;28;20202;-77
2023/04/11 01:58:31;;;;;;;1.83;1.07;;;;;;;9.29;100.00;100059.47;4988118;28;20251;-81
2023/04/11 02:00:58;;;;;;;0.90;0.80;;;;;;;9.28;100.00;100057.69;4990626;28;20223;-78
2023/04/11 02:03:24;;;;;;;2.33;0.90;;;;;;;9.35;100.00;100069.22;4995643;28;20194;-81
2023/04/11 02:05:51;;;;;;;2.17;0.97;;;;;;;9.30;100.00;100069.16;4995872;28;20859;-84
2023/04/11 02:08:17;;;;;;;1.87;0.90;;;;;;;9.29;100.00;100070.03;4981959;28;20225;-81
2023/04/11 02:10:44;;;;;;;2.87;1.10;;;;;;;9.30;100.00;100071.81;4993313;28;20266;-78
2023/04/11 02:13:10;;;;;;;1.20;1.03;;;;;;;9.29;100.00;100087.63;4999186;28;20200;-83
2023/04/11 02:15:37;;;;;;;1.37;0.80;;;;;;;9.27;100.00;100092.91;4998118;28;20644;-83
2023/04/11 02:18:03;;;;;;;1.37;0.90;;;;;;;9.30;100.00;100089.41;4999801;28;20202;-82
2023/04/11 02:20:30;;;;;;;3.03;1.07;;;;;;;9.28;100.00;100092.03;4994127;28;20246;-77
2023/04/11 02:22:57;;;;;;;2.17;1.00;;;;;;;9.19;100.00;100093.63;4986549;28;20199;-76
2023/04/11 02:25:24;;;;;;;1.33;0.77;;;;;;;9.16;100.00;100112.09;4996929;28;20275;-75
2023/04/11 02:27:50;;;;;;;1.67;0.80;;;;;;;9.10;100.00;100084.72;4998403;28;20221;-76
2023/04/11 02:30:17;;;;;;;2.60;1.00;;;;;;;9.08;100.00;100077.66;4994313;28;20697;-79
2023/04/11 02:32:45;;;;;;;1.00;0.80;;;;;;;9.07;100.00;100071.47;5003039;28;20213;-78
2023/04/11 02:35:11;;;;;;;2.97;0.83;;;;;;;9.05;100.00;100089.06;4981417;28;20200;-78
2023/04/11 02:37:38;;;;;;;2.80;1.00;;;;;;;8.99;100.00;100086.31;5001000;28;20196;-76
2023/04/11 02:40:05;;;;;;;1.27;0.87;;;;;;;8.91;100.00;100076.53;4997652;28;20617;-78
2023/04/11 02:42:31;;;;;;;1.50;0.77;;;;;;;8.82;100.00;100069.34;4996453;28;20605;-76
2023/04/11 02:44:57;;;;;;;0.83;0.80;;;;;;;8.87;100.00;100077.34;4995129;28;20205;-76
2023/04/11 02:47:24;;;;;;;3.70;1.03;;;;;;;8.86;100.00;100088.78;5004959;28;20217;-76
2023/04/11 02:49:50;;;;;;;2.23;1.10;;;;;;;8.88;100.00;100079.13;4999226;28;20219;-76
2023/04/11 02:52:17;;;;;;;4.80;2.70;;;;;;;8.83;100.00;100067.59;4997953;28;20209;-75
2023/04/11 02:54:45;;;;;;;2.83;1.00;;;;;;;8.83;100.00;100075.53;4996521;28;20203;-75
2023/04/11 02:57:11;;;;;;;1.70;1.00;;;;;;;8.82;100.00;100074.63;5001075;28;20197;-75
2023/04/11 02:59:37;;;;;;;2.43;0.90;;;;;;;8.84;100.00;100072.91;4998719;28;20221;-75
2023/04/11 03:02:04;;;;;;;1.57;0.90;;;;;;;8.82;100.00;100053.50;4978846;28;20208;-75
2023/04/11 03:04:30;;;;;;;2.10;0.80;;;;;;;8.78;100.00;100068.38;5006215;28;20196;-76
2023/04/11 03:06:57;;;;;;;0.87;0.70;;;;;;;8.71;100.00;100048.03;4986187;28;20284;-75
2023/04/11 03:09:23;;;;;;;1.17;0.70;;;;;;;8.70;100.00;100050.66;5001051;28;20228;-75
2023/04/11 03:11:50;;;;;;;3.60;0.73;;;;;;;8.65;100.00;100052.34;4986105;28;20207;-75
2023/04/11 03:14:17;;;;;;;2.27;0.80;;;;;;;8.56;100.00;100053.09;5004044;28;20600;-75
2023/04/11 03:16:43;;;;;;;1.00;0.70;;;;;;;8.53;100.00;100041.59;4998753;28;20222;-75
2023/04/11 03:19:09;;;;;;;1.93;0.90;;;;;;;8.51;100.00;100048.63;4994707;28;20226;-75
2023/04/11 03:21:36;;;;;;;1.50;1.00;;;;;;;8.53;100.00;100055.69;4992761;28;20208;-75
2023/04/11 03:24:02;;;;;;;2.83;0.80;;;;;;;8.48;100.00;100052.97;4984773;28;20235;-75
2023/04/11 03:26:29;;;;;;;3.23;0.80;;;;;;;8.35;100.00;100035.16;5000565;28;20263;-75
2023/04/11 03:28:55;;;;;;;0.90;0.80;;;;;;;8.32;100.00;100047.38;4980636;28;20244;-75
2023/04/11 03:31:22;;;;;;;1.73;0.90;;;;;;;8.31;100.00;100051.75;5002757;28;20580;-75
2023/04/11 03:33:48;;;;;;;1.17;0.80;;;;;;;8.31;100.00;100066.69;4998352;28;20235;-77
2023/04/11 03:36:15;;;;;;;1.33;1.13;;;;;;;8.23;100.00;100066.56;5000342;28;20644;-75
2023/04/11 03:38:42;;;;;;;2.40;1.10;;;;;;;8.27;100.00;100072.78;5001074;28;20678;-75
2023/04/11 03:41:08;;;;;;;1.53;0.80;;;;;;;8.14;100.00;100048.84;5001807;28;20689;-75
2023/04/11 03:43:34;;;;;;;1.77;1.20;;;;;;;8.20;100.00;100058.59;5005987;28;20192;-75
2023/04/11 03:46:01;;;;;;;3.77;1.50;;;;;;;8.23;100.00;100076.25;4996277;28;20196;-75
2023/04/11 03:48:29;;;;;;;3.13;0.90;;;;;;;8.20;100.00;100068.28;5005014;28;20224;-75
2023/04/11 03:50:55;;;;;;;2.53;1.10;;;;;;;8.28;100.00;100078.09;4981509;28;20300;-75
2023/04/11 03:53:22;;;;;;;2.43;0.80;;;;;;;8.22;100.00;100071.81;5003524;28;20212;-75
2023/04/11 03:55:48;;;;;;;1.47;1.07;;;;;;;8.18;100.00;100071.78;4994351;28;20204;-76
2023/04/11 03:58:15;;;;;;;3.50;1.00;;;;;;;8.13;100.00;100064.66;5001275;28;20224;-75
2023/04/11 04:00:41;;;;;;;1.83;1.10;;;;;;;8.11;100.00;100064.63;5005611;28;20234;-75
2023/04/11 04:03:07;;;;;;;1.33;1.00;;;;;;;8.11;100.00;100063.72;4998950;28;20204;-75
2023/04/11 04:05:34;;;;;;;2.20;1.10;;;;;;;8.12;100.00;100062.88;4998379;28;20294;-75
2023/04/11 04:08:01;;;;;;;2.60;0.93;;;;;;;8.09;100.00;100055.78;5002829;28;20223;-75
2023/04/11 04:10:30;;;;;;;1.40;0.87;;;;;;;8.06;100.00;100050.47;5001937;28;20261;-75
2023/04/11 04:12:56;;;;;;;2.60;1.17;;;;;;;8.03;100.00;100074.16;5004897;28;20195;-74
2023/04/11 04:15:23;;;;;;;6.53;3.20;;;;;;;8.05;100.00;100088.25;4987930;28;20486;-75
2023/04/11 04:17:50;;;;;;;2.93;1.53;;;;;;;7.98;100.00;100096.00;4978330;28;20203;-75
2023/04/11 04:20:16;;;;;;;0.90;0.77;;;;;;;7.95;100.00;100093.28;5003809;28;20237;-75
2023/04/11 04:22:46;;;;;;;2.77;1.20;;;;;;;7.88;100.00;100084.38;5004508;28;20255;-75
2023/04/11 04:25:18;;;;;;;2.13;1.07;;;;;;;7.89;100.00;100080.88;4996275;28;20208;-76
2023/04/11 04:27:45;;;;;;;1.40;1.00;;;;;;;7.79;100.00;100093.00;4995239;28;20602;-77
2023/04/11 04:30:14;;;;;;;2.37;0.97;;;;;;;7.86;100.00;100094.91;5000570;28;20226;-78
2023/04/11 04:32:45;;;;;;;3.60;1.10;;;;;;;7.81;100.00;100093.94;4991796;28;20240;-75
2023/04/11 04:35:12;;;;;;;2.23;1.00;;;;;;;7.66;100.00;100087.47;4991950;28;20196;-76
2023/04/11 04:37:44;;;;;;;1.50;1.00;;;;;;;7.71;100.00;100093.72;4995458;28;20200;-76
2023/04/11 04:40:19;;;;;;;1.43;0.97;;;;;;;7.55;100.00;100089.88;4998203;28;20703;-75
2023/04/11 04:42:48;;;;;;;2.33;1.03;;;;;;;7.43;100.00;100100.16;4989371;28;20204;-76
2023/04/11 04:45:15;;;;;;;4.00;1.10;;;;;;;7.36;100.00;100096.50;5000525;28;20679;-75
2023/04/11 04:47:41;;;;;;;2.53;1.20;;;;;;;7.27;100.00;100093.69;4991137;28;20203;-77
2023/04/11 04:50:08;;;;;;;1.77;1.00;;;;;;;7.21;100.00;100102.34;4995738;28;20311;-76
2023/04/11 04:52:35;;;;;;;3.17;1.20;;;;;;;7.13;100.00;100105.63;4992232;28;20214;-75
2023/04/11 04:55:02;;;;;;;2.93;0.97;;;;;;;7.05;100.00;100105.47;4999934;28;20206;-76
2023/04/11 04:57:32;;;;;;;2.70;1.40;;;;;;;6.95;100.00;100098.22;4991997;28;20511;-76
2023/04/11 04:59:58;;;;;;;1.07;0.90;;;;;;;6.89;100.00;100092.81;5003144;28;20692;-76
2023/04/11 05:02:25;;;;;;;4.37;1.07;;;;;;;7.00;100.00;100108.84;4982893;28;20202;-76
2023/04/11 05:04:53;;;;;;;2.37;1.00;;;;;;;6.94;100.00;100111.34;4988046;28;20192;-77
2023/04/11 05:07:19;;;;;;;2.33;1.20;;;;;;;6.99;100.00;100114.97;4999500;28;20743;-76
2023/04/11 05:09:46;;;;;;;2.97;1.20;;;;;;;7.04;100.00;100126.50;4999146;28;20218;-77
2023/04/11 05:12:14;;;;;;;4.83;1.23;;;;;;;7.08;100.00;100129.25;4993741;28;20211;-76
2023/04/11 05:14:41;;;;;;;2.60;1.07;;;;;;;7.11;100.00;100129.31;4990947;28;20276;-77
2023/04/11 05:17:08;;;;;;;2.80;1.20;;;;;;;7.09;100.00;100125.75;4993589;28;20202;-76
2023/04/11 05:19:34;;;;;;;2.03;1.20;;;;;;;7.21;100.00;100127.78;5006011;28;20701;-77
2023/04/11 05:22:00;;;;;;;3.17;1.30;;;;;;;7.38;100.00;100128.16;4976789;28;20200;-75
2023/04/11 05:24:27;;;;;;;2.97;1.13;;;;;;;7.55;100.00;100132.91;4984791;28;20625;-74
2023/04/11 05:26:53;;;;;;;5.33;1.20;;;;;;;7.82;100.00;100140.53;4995178;28;20586;-76
2023/04/11 05:29:20;;;;;;;2.70;1.13;;;;;;;7.94;100.00;100138.97;4982432;28;20226;-76
2023/04/11 05:31:46;;;;;;;3.47;1.10;;;;;;;7.99;100.00;100140.84;4989165;28;20197;-76
2023/04/11 05:34:13;;;;;;;4.93;1.33;;;;;;;8.08;99.80;100141.03;4987218;28;20208;-75
2023/04/11 05:36:40;;;;;;;5.37;1.73;;;;;;;8.14;98.73;100148.19;4986701;28;20209;-75
2023/04/11 05:39:07;;;;;;;4.77;1.50;;;;;;;8.20;97.20;100145.66;4987805;28;20285;-78
2023/04/11 05:41:33;;;;;;;5.70;2.03;;;;;;;8.24;97.03;100133.41;4984075;28;21368;-75
2023/04/11 05:44:00;;;;;;;5.30;1.50;;;;;;;8.35;96.27;100156.53;4969276;28;20489;-75
2023/04/11 05:46:28;;;;;;;4.30;1.33;;;;;;;8.36;96.15;100150.38;4973400;28;20203;-75
2023/04/11 05:48:56;;;;;;;4.60;1.37;;;;;;;8.41;96.24;100164.56;4968284;28;20224;-75
2023/04/11 05:51:23;;;;;;;3.57;1.50;;;;;;;8.50;94.98;100162.97;4984868;28;20219;-74
2023/04/11 05:53:50;;;;;;;3.33;1.50;;;;;;;8.51;94.52;100167.38;4980503;28;20201;-75
2023/04/11 05:56:16;;;;;;;5.70;1.40;;;;;;;8.51;94.92;100165.63;4981265;28;20272;-75
2023/04/11 05:58:43;;;;;;;4.80;1.13;;;;;;;8.57;94.96;100167.47;4991501;28;20196;-74
2023/04/11 06:01:17;;;;;;;5.90;1.60;;;;;;;8.62;94.59;100165.81;4966999;28;20223;-74
2023/04/11 06:03:47;;;;;;;5.60;1.40;;;;;;;8.60;94.72;100163.13;4993318;28;20208;-75
2023/04/11 06:06:14;;;;;;;4.37;1.13;;;;;;;8.63;94.41;100157.03;5000793;28;20207;-75
2023/04/11 06:08:41;;;;;;;4.27;1.30;;;;;;;8.66;93.81;100168.53;4967103;28;20250;-75
2023/04/11 06:11:08;;;;;;;4.70;1.40;;;;;;;8.75;94.61;100167.78;4974454;28;20224;-75
2023/04/11 06:13:34;;;;;;;4.57;1.60;;;;;;;8.79;94.27;100177.53;4985685;28;20279;-75
2023/04/11 06:16:01;;;;;;;5.20;1.57;;;;;;;8.79;93.33;100178.41;4987608;28;20203;-75
2023/04/11 06:18:27;;;;;;;4.20;1.60;;;;;;;8.81;93.11;100185.50;5001276;28;20200;-76
2023/04/11 06:20:53;;;;;;;4.90;2.00;;;;;;;8.94;91.38;100187.50;4975497;28;20357;-75
2023/04/11 06:23:20;;;;;;;6.50;1.40;;;;;;;8.96;91.43;100172.56;4996752;28;20206;-75
2023/04/11 06:25:46;;;;;;;4.67;1.50;;;;;;;8.98;89.89;100169.06;4987242;28;20199;-75
2023/04/11 06:28:13;;;;;;;4.40;1.20;;;;;;;9.37;88.45;100176.72;4994567;28;20219;-75
2023/04/11 06:30:40;;;;;;;6.57;1.47;;;;;;;9.76;86.47;100180.78;5005975;28;20322;-76
2023/04/11 06:33:06;;;;;;;5.50;1.33;;;;;;;9.76;85.01;100177.25;4995903;28;20289;-76
2023/04/11 06:35:33;;;;;;;7.13;1.43;;;;;;;9.72;85.64;100189.56;4997287;28;20196;-78
2023/04/11 06:37:59;;;;;;;4.27;1.50;;;;;;;9.86;85.16;100171.22;5005206;28;20250;-79
2023/04/11 06:40:25;;;;;;;4.37;1.40;;;;;;;9.83;84.32;100190.56;5006252;28;20243;-77
2023/04/11 06:42:52;;;;;;;5.83;1.30;;;;;;;9.82;84.00;100186.16;5003691;28;20659;-76
2023/04/11 06:45:19;;;;;;;6.83;1.30;;;;;;;10.34;82.90;100197.41;4991464;28;20294;-76
2023/04/11 06:47:45;;;;;;;4.40;1.33;;;;;;;10.49;81.00;100192.28;4987363;28;20197;-77
2023/04/11 06:50:12;;;;;;;5.27;1.17;;;;;;;10.40;81.28;100205.41;5006863;28;20223;-79
2023/04/11 06:52:38;;;;;;;5.03;1.47;;;;;;;10.32;80.53;100215.91;4980242;28;20222;-75
2023/04/11 06:55:08;;;;;;;5.13;1.60;;;;;;;10.65;80.25;100219.81;4991793;28;20299;-75
2023/04/11 06:57:35;;;;;;;5.90;1.40;;;;;;;11.07;77.55;100213.13;4994512;28;20242;-77
2023/04/11 07:00:05;;;;;;;7.70;1.37;;;;;;;11.18;76.48;100230.88;4997659;28;20217;-77
2023/04/11 07:02:34;;;;;;;4.57;1.43;;;;;;;11.69;72.82;100212.72;4994730;28;20635;-78
2023/04/11 07:05:01;;;;;;;5.50;1.50;;;;;;;11.88;70.60;100223.47;5001553;28;20330;-79
2023/04/11 07:07:27;;;;;;;5.07;1.40;;;;;;;12.79;67.72;100225.53;4981559;28;20198;-78
2023/04/11 07:09:54;;;;;;;5.23;1.60;;;;;;;12.63;68.02;100231.72;5001384;28;20574;-82
2023/04/11 07:12:20;;;;;;;4.77;1.70;;;;;;;11.83;71.36;100230.50;4968769;28;20212;-83
2023/04/11 07:14:46;;;;;;;6.47;1.30;;;;;;;12.21;68.73;100236.00;4968977;28;20558;-85
2023/04/11 07:17:13;;;;;;;4.53;1.40;;;;;;;11.96;67.06;100231.44;4976179;28;20642;-82
2023/04/11 07:19:39;;;;;;;5.73;1.20;;;;;;;12.62;65.26;100237.91;4993514;28;20382;-77
2023/04/11 07:22:06;;;;;;;5.73;1.43;;;;;;;12.82;63.50;100230.00;4994988;28;20228;-78
2023/04/11 07:24:32;;;;;;;4.67;1.40;;;;;;;13.42;61.48;100221.19;4998181;28;20232;-77
2023/04/11 07:27:00;;;;;;;7.07;1.50;;;;;;;12.74;64.36;100237.06;4987165;28;20223;-79
2023/04/11 07:29:29;;;;;;;4.57;1.47;;;;;;;13.01;64.80;100226.47;4987657;28;20224;-79
2023/04/11 07:31:59;;;;;;;7.07;1.73;;;;;;;13.85;62.45;100239.75;4998042;28;20202;-79
2023/04/11 07:34:25;;;;;;;5.03;1.50;;;;;;;12.33;64.97;100234.28;4999394;28;20687;-89
2023/04/11 07:36:52;;;;;;;3.87;1.23;;;;;;;12.69;64.26;100234.41;4994861;28;20201;-86
2023/04/11 07:39:18;;;;;;;7.13;1.60;;;;;;;12.66;60.72;100223.75;4991198;28;20241;-89
2023/04/11 07:41:45;;;;;;;9.30;1.40;;;;;;;12.79;60.88;100217.56;5002715;28;20208;-87
2023/04/11 07:44:11;;;;;;;4.97;1.43;;;;;;;13.16;60.65;100244.19;4970097;28;20222;-85
2023/04/11 07:46:37;;;;;;;7.33;1.87;;;;;;;13.06;60.51;100238.00;4990617;28;20201;-84
2023/04/11 07:49:04;;;;;;;5.07;1.40;;;;;;;13.34;60.35;100238.06;4996104;28;20218;-80
2023/04/11 07:51:31;;;;;;;5.97;1.60;;;;;;;12.96;60.55;100244.19;5002363;28;20253;-79
2023/04/11 07:54:00;;;;;;;3.50;1.20;;;;;;;12.67;59.97;100246.78;4994453;28;20208;-83
2023/04/11 07:56:26;;;;;;;7.73;1.63;;;;;;;12.47;61.18;100256.47;4998765;28;20220;-79
2023/04/11 07:58:53;;;;;;;4.07;1.23;;;;;;;12.10;61.04;100248.34;4994233;28;20253;-80
2023/04/11 08:01:23;;;;;;;5.40;1.50;;;;;;;12.20;62.16;100249.28;5004679;28;20227;-81
2023/04/11 08:03:52;;;;;;;5.77;1.40;;;;;;;12.19;61.34;100261.66;4981834;28;20202;-85
2023/04/11 08:06:19;;;;;;;4.23;1.33;;;;;;;11.92;60.52;100253.56;4987222;28;20232;-84
2023/04/11 08:08:47;;;;;;;3.53;1.17;;;;;;;11.84;60.95;100258.81;4984734;28;20230;-84
2023/04/11 08:11:14;;;;;;;5.60;1.13;;;;;;;11.65;61.61;100283.44;4968602;28;20278;-85
2023/04/11 08:13:41;;;;;;;3.90;1.20;;;;;;;11.58;61.00;100290.44;4966223;28;20286;-84
2023/04/11 08:16:13;;;;;;;5.67;1.33;;;;;;;11.69;60.79;100282.56;4983006;28;20260;-84
2023/04/11 08:18:41;;;;;;;3.47;1.30;;;;;;;11.82;59.70;100279.16;4982865;28;20241;-85
2023/04/11 08:21:09;;;;;;;6.23;1.67;;;;;;;12.08;60.26;100279.31;4977788;28;20222;-86
2023/04/11 08:23:36;;;;;;;3.40;1.33;;;;;;;11.86;59.30;100283.59;4977912;28;20284;-82
2023/04/11 08:26:02;;;;;;;4.30;1.20;;;;;;;11.30;60.62;100276.09;4959291;28;20268;-79
2023/04/11 08:28:29;;;;;;;4.57;1.10;;;;;;;11.24;60.59;100276.03;4964891;28;20586;-83
2023/04/11 08:30:57;;;;;;;5.00;1.33;;;;;;;11.37;62.05;100284.97;4971461;28;20293;-83
2023/04/11 08:33:24;;;;;;;5.67;1.50;;;;;;;11.43;60.86;100290.31;4974519;28;20223;-81
2023/04/11 08:35:51;;;;;;;6.83;1.40;;;;;;;11.90;60.79;100284.50;4978040;28;20656;-84
2023/04/11 08:38:18;;;;;;;5.77;1.33;;;;;;;12.27;59.31;100296.22;4961255;28;20206;-81
2023/04/11 08:40:45;;;;;;;3.70;1.60;;;;;;;12.34;57.46;100282.09;4971924;28;20215;-79
2023/04/11 08:43:11;;;;;;;4.90;1.47;;;;;;;12.82;57.44;100289.38;4962351;28;20246;-79
2023/04/11 08:45:39;;;;;;;4.97;1.70;;;;;;;13.33;56.13;100277.06;4979125;28;20205;-78
2023/04/11 08:48:07;;;;;;;5.70;1.40;;;;;;;14.05;53.77;100291.19;4981162;28;20696;-77
2023/04/11 08:50:34;;;;;;;3.23;1.17;;;;;;;13.82;52.81;100284.13;4977406;28;20228;-77
2023/04/11 08:53:01;;;;;;;3.10;1.30;;;;;;;13.70;53.48;100282.38;4981515;28;20578;-77
2023/04/11 08:55:31;;;;;;;6.30;1.10;;;;;;;13.26;53.50;100283.28;4979942;28;20205;-81
2023/04/11 08:58:01;;;;;;;3.90;1.20;;;;;;;13.06;53.79;100279.66;4983658;28;20200;-76
2023/04/11 09:00:31;;;;;;;2.33;1.17;;;;;;;12.77;56.17;100287.56;4958575;28;20235;-78
2023/04/11 09:03:05;;;;;;;5.70;1.53;;;;;;;12.96;55.68;100294.72;4970419;28;20466;-77
2023/04/11 09:05:37;;;;;;;8.00;1.60;;;;;;;13.16;54.62;100302.69;4959474;28;20287;-77
2023/04/11 09:08:09;;;;;;;4.53;1.20;;;;;;;12.76;54.66;100289.31;4979663;28;20208;-76
2023/04/11 09:10:38;;;;;;;3.47;1.30;;;;;;;13.11;54.92;100296.50;4975491;28;20274;-77
2023/04/11 09:13:21;;;;;;;5.23;1.23;;;;;;;13.25;55.33;100309.88;4963593;28;20278;-76
2023/04/11 09:16:04;;;;;;;3.73;1.10;;;;;;;12.98;54.03;100298.25;4958890;28;20345;-77
2023/04/11 09:18:36;;;;;;;3.50;1.13;;;;;;;13.33;53.93;100308.97;4981418;28;20204;-82
2023/04/11 09:21:09;;;;;;;4.87;1.17;;;;;;;13.62;53.61;100306.34;4983468;28;20620;-79
2023/04/11 09:23:37;;;;;;;4.53;1.00;;;;;;;13.80;53.52;100310.75;4972546;28;20201;-76
2023/04/11 09:26:11;;;;;;;3.83;1.20;;;;;;;13.98;53.28;100302.72;4965854;28;20591;-80
2023/04/11 09:28:52;;;;;;;7.10;1.30;;;;;;;13.98;50.03;100304.50;4986765;28;20292;-78
2023/04/11 09:31:20;;;;;;;2.97;1.30;;;;;;;14.22;49.63;100307.13;4984303;28;20605;-77
2023/04/11 09:33:58;;;;;;;3.40;1.10;;;;;;;14.34;49.98;100306.19;4987538;28;20202;-78
2023/04/11 09:36:28;;;;;;;4.23;1.20;;;;;;;14.51;48.89;100309.72;4969407;28;20446;-77
2023/04/11 09:38:56;;;;;;;5.70;1.30;;;;;;;14.87;49.39;100299.78;4988705;28;20207;-79
2023/04/11 09:41:32;;;;;;;4.20;0.90;;;;;;;15.06;46.65;100304.09;4988481;28;20660;-79
2023/04/11 09:44:00;;;;;;;2.77;1.00;;;;;;;15.52;45.92;100302.00;4972759;28;20208;-75
2023/04/11 09:46:26;;;;;;;2.93;1.13;;;;;;;15.24;46.96;100313.78;4986844;28;20209;-75
2023/04/11 09:48:54;;;;;;;6.73;1.30;;;;;;;13.91;56.91;100343.56;4985585;28;20650;-75
2023/04/11 09:51:21;;;;;;;3.73;1.00;;;;;;;12.50;69.10;100360.97;4986448;28;20718;-77
2023/04/11 09:54:02;;;;;;;2.20;1.10;;;;;;;11.78;81.31;100353.41;4986303;28;20199;-75
2023/04/11 09:56:29;;;;;;;2.37;0.80;;;;;;;11.47;82.71;100363.72;4988111;28;20205;-78
2023/04/11 09:58:59;;;;;;;1.27;0.80;;;;;;;11.27;81.53;100358.25;4987437;28;20674;-79
2023/04/11 10:01:26;;;;;;;3.57;0.80;;;;;;;11.14;80.51;100347.47;4990897;28;20618;-82
2023/04/11 10:03:54;;;;;;;2.83;1.00;;;;;;;10.98;79.76;100344.66;4989297;28;20664;-84
2023/04/11 10:06:32;;;;;;;3.63;1.00;;;;;;;11.14;78.02;100343.06;4991895;28;20266;-86
2023/04/11 10:09:06;;;;;;;4.77;1.40;;;;;;;11.32;78.62;100330.88;4973183;28;20206;-86
2023/04/11 10:11:33;;;;;;;2.73;1.13;;;;;;;11.68;72.73;100339.16;4975571;28;20252;-85
2023/04/11 10:13:59;;;;;;;3.37;1.17;;;;;;;12.05;70.41;100324.44;4994022;28;20636;-82
2023/04/11 10:16:27;;;;;;;4.17;1.20;;;;;;;12.23;70.86;100318.31;4961659;28;20629;-84
2023/04/11 10:18:54;;;;;;;2.40;0.80;;;;;;;12.60;63.06;100332.69;4978037;28;20203;-80
2023/04/11 10:21:37;;;;;;;4.33;1.33;;;;;;;12.71;62.92;100320.31;4978206;28;20224;-80
2023/04/11 10:24:14;;;;;;;5.50;1.20;;;;;;;13.14;61.98;100315.09;4980411;28;20287;-80
2023/04/11 10:26:53;;;;;;;6.53;1.30;;;;;;;13.52;55.98;100315.19;4993897;23;20241;-73
2023/04/11 10:29:47;;;;;;;3.10;1.20;;;;;;;13.59;48.85;100303.66;5028379;28;20223;-78
2023/04/11 10:32:21;;;;;;;2.80;1.10;;;;;;;13.56;46.77;100310.75;5022448;28;20283;-79
2023/04/11 10:34:50;;;;;;;3.23;1.10;;;;;;;13.65;47.55;100313.44;5031905;28;20231;-78
2023/04/11 10:37:18;;;;;;;2.13;0.80;;;;;;;13.49;46.38;100313.41;5041719;28;20255;-77
2023/04/11 10:39:50;;;;;;;1.93;0.90;;;;;;;13.63;44.85;100313.44;5032424;28;20278;-78
2023/04/11 10:42:35;;;;;;;3.17;1.00;;;;;;;14.19;47.13;100304.47;5051642;28;20198;-78
2023/04/11 10:45:23;;;;;;;4.47;1.00;;;;;;;14.70;45.10;100303.41;5045721;28;20197;-79
2023/04/11 10:47:58;;;;;;;4.83;0.90;;;;;;;15.00;42.78;100302.38;5048198;28;20218;-80
2023/04/11 10:50:27;;;;;;;5.43;1.10;;;;;;;15.34;43.65;100305.69;5050613;28;20224;-75
2023/04/11 10:52:56;;;;;;;2.20;1.00;;;;;;;15.41;45.40;100294.97;5051377;28;20198;-74
2023/04/11 10:55:23;;;;;;;1.33;0.83;;;;;;;15.69;44.60;100301.00;5048717;28;20206;-70
2023/04/11 10:58:12;;;;;;;4.13;2.00;;;;;;;15.57;42.81;100291.28;5045260;28;20219;-70
2023/04/11 11:00:45;;;;;;;5.63;1.47;;;;;;;16.28;43.05;100306.63;5045348;28;20191;-70
2023/04/11 11:03:15;;;;;;;5.17;1.77;;;;;;;16.11;39.47;100287.25;5047257;28;20205;-68
2023/04/11 11:05:42;;;;;;;3.17;1.20;;;;;;;16.16;43.34;100304.09;5046527;28;20593;-70
2023/04/11 11:08:09;;;;;;;1.83;0.90;;;;;;;16.36;44.25;100301.19;5045324;28;20223;-68
2023/04/11 11:10:48;;;;;;;2.80;1.03;;;;;;;16.71;43.46;100298.13;5048568;28;20250;-69
2023/04/11 11:13:15;;;;;;;4.03;1.50;;;;;;;16.93;41.96;100293.38;5045624;28;20210;-67
2023/04/11 11:15:47;;;;;;;3.53;1.10;;;;;;;16.85;43.74;100293.50;5047531;28;20205;-68
2023/04/11 11:18:15;;;;;;;3.50;1.03;;;;;;;16.87;43.63;100296.16;5045041;28;20637;-72
2023/04/11 11:20:41;;;;;;;2.37;1.07;;;;;;;16.42;45.26;100302.94;5049343;28;20552;-71
2023/04/11 11:23:09;;;;;;;4.37;1.00;;;;;;;16.24;43.95;100298.66;5049818;28;20678;-72
2023/04/11 11:25:36;;;;;;;4.10;1.20;;;;;;;16.44;44.01;100296.66;5046896;28;20210;-71
2023/04/11 11:28:08;;;;;;;3.60;1.03;;;;;;;16.90;43.80;100298.78;5045262;28;20226;-68
2023/04/11 11:30:35;;;;;;;2.83;0.93;;;;;;;16.36;41.73;100300.31;5050020;28;20520;-70